Аэропорт: Львов имени Даниила Галицкого. Львов

ICAO: UKLL

METAR:
2021-07-28 14:00:00
UKLL 281400Z 25004G09MPS 200V280 9999 SCT043CB 32/15 Q1012 R31/CLRD// TEMPO -TSRAGR BKN020CB
METAR:
2021-07-28 11:12:00
TAF UKLL 281112Z 2812/2912 VRB01MPS 9999 BKN025 TX31/2812Z TN18/2903Z TEMPO 2812/2819 VRB06G11MPS 3000 -TSRAGR BKN010 BKN020CB TEMPO 2819/2821 -SHRA BKN020CB TEMPO 2900/2903 16004MPS BECMG 2903/2905 27006MPS TEMPO 2905/2912 VRB09G14MPS 2100 -TSRAGR BKN007 BKN020CB